메인 페이지
METAR-TAF:

METAR-TAF

공항 :

메르사마트루, 이집트

위도: 31-20N, 경도: 027-13E, 고도: 25m

현재 날씨관측

예보는 45분 전, 17:00시(UTC)에 발표되었습니다.
동남동12kt
온도 23°C
습도 50%
기압 1014 hPa
시정 10km 이상
1500m 미만 상공 구름 및 적란운 없음

METAR: HEMM 311700Z 12012KT CAVOK 23/12 Q1014 NOSIG

시각: 19:45 (17:45 UTC)

예보

예보는 45분 전, 17:00시(UTC)에 발표되었습니다.
예보 대상 시간: 31일 18시부터 01일 24시까지 (UTC)
동남동13kt
시정 10km 이상
1500m 미만 상공 구름 및 적란운 없음
전환 중
01일 04시부터 01일 06시까지 (UTC)
8kt, 순간 최대 풍속 18kt
확률 30% :
일시적
01일 06시부터 01일 12시까지 (UTC)
시정: 4000m
모래
전환 중
01일 10시부터 01일 12시까지 (UTC)
북북서8kt, 순간 최대 풍속 18kt

TAF: HEMM 311700Z 3118/0124 11013KT CAVOK BECMG 0104/0106 18008G18KT PROB30 TEMPO 0106/0112 4000 SA NSC BECMG 0110/0112 33008G18KT

4,000개 이상의 공항 관측 자료 및 예보 (METAR 및 TAF 보고).

지도상에서 검색 가능한 기상관측소가 노란 점과 빨간 점으로 표시되어 있습니다.

기상관측소 명을 보려면 표시 위로 마우스를 이동하세요.

날씨 관측과 예보를 보려면 클릭하세요.

지도 변경 : 확대하려면 엑스 표시가 있는 녹색 버튼, 축소하려면 빼기 표시가 있는 녹색 버튼, 다음 페이지의 지도를 보려면 녹색 화살표를 클릭하세요.


METAR-TAF: